createdAt,value
2022-08-03T00:00:24.253Z,20.13
2022-08-03T00:02:50.929Z,20.11
2022-08-03T00:05:17.630Z,20.12
2022-08-03T00:07:44.249Z,20.07
2022-08-03T00:10:11.340Z,20.06
2022-08-03T00:12:37.903Z,20.03
2022-08-03T00:15:05.760Z,19.98
2022-08-03T00:17:53.515Z,19.93
2022-08-03T00:20:23.399Z,19.96
2022-08-03T00:22:50.259Z,19.93
2022-08-03T00:25:17.129Z,19.88
2022-08-03T00:27:43.659Z,19.88
2022-08-03T00:30:10.779Z,19.87
2022-08-03T00:32:38.839Z,19.78
2022-08-03T00:35:25.962Z,19.80
2022-08-03T00:37:59.233Z,19.80
2022-08-03T00:40:25.843Z,19.82
2022-08-03T00:42:54.453Z,19.79
2022-08-03T00:45:22.805Z,19.75
2022-08-03T00:47:49.409Z,19.73
2022-08-03T00:50:17.205Z,19.74
2022-08-03T00:52:44.364Z,19.71
2022-08-03T00:55:11.666Z,19.68
2022-08-03T00:57:38.462Z,19.64
2022-08-03T01:00:07.464Z,19.66
2022-08-03T01:02:34.202Z,19.65
2022-08-03T01:05:00.752Z,19.62
2022-08-03T01:07:37.613Z,19.58
2022-08-03T01:10:27.349Z,19.58
2022-08-03T01:13:06.716Z,19.58
2022-08-03T01:16:00.001Z,19.55
2022-08-03T01:18:39.385Z,19.52
2022-08-03T01:21:12.029Z,19.55
2022-08-03T01:23:49.098Z,19.49
2022-08-03T01:26:21.643Z,19.41
2022-08-03T01:28:59.595Z,19.40
2022-08-03T01:31:33.555Z,19.37
2022-08-03T01:34:03.364Z,19.38
2022-08-03T01:36:36.947Z,19.35
2022-08-03T01:39:05.028Z,19.31
2022-08-03T01:41:36.611Z,19.26
2022-08-03T01:44:29.890Z,19.21
2022-08-03T01:46:51.592Z,19.20
2022-08-03T01:49:18.507Z,19.18
2022-08-03T01:51:58.456Z,19.19
2022-08-03T01:54:36.980Z,19.17
2022-08-03T01:57:04.302Z,19.15
2022-08-03T01:59:32.988Z,19.15
2022-08-03T02:02:28.620Z,19.15
2022-08-03T02:04:48.230Z,19.12
2022-08-03T02:07:15.270Z,19.08
2022-08-03T02:09:45.076Z,19.02
2022-08-03T02:12:12.482Z,19.01
2022-08-03T02:14:41.115Z,18.99
2022-08-03T02:17:08.237Z,18.96
2022-08-03T02:19:35.926Z,18.93
2022-08-03T02:22:04.332Z,18.97
2022-08-03T02:24:31.347Z,18.99
2022-08-03T02:26:59.029Z,18.95
2022-08-03T02:29:39.909Z,18.92
2022-08-03T02:32:10.333Z,18.86
2022-08-03T02:34:37.897Z,18.87
2022-08-03T02:37:04.788Z,18.83
2022-08-03T02:39:33.446Z,18.80
2022-08-03T02:42:03.657Z,18.72
2022-08-03T02:44:32.782Z,18.71
2022-08-03T02:47:03.828Z,18.65
2022-08-03T02:49:40.595Z,18.62
2022-08-03T02:52:18.050Z,18.61
2022-08-03T02:54:45.857Z,18.56
2022-08-03T02:57:13.346Z,18.55
2022-08-03T02:59:40.463Z,18.52
2022-08-03T03:02:07.012Z,18.54
2022-08-03T03:04:34.007Z,18.45
2022-08-03T03:07:01.834Z,18.41
2022-08-03T03:09:40.243Z,18.43
2022-08-03T03:12:10.267Z,18.38
2022-08-03T03:14:37.526Z,18.32
2022-08-03T03:17:06.522Z,18.32
2022-08-03T03:19:33.823Z,18.30
2022-08-03T03:22:01.655Z,18.28
2022-08-03T03:24:29.764Z,18.27
2022-08-03T03:26:57.211Z,18.22
2022-08-03T03:29:24.155Z,18.22
2022-08-03T03:31:50.944Z,18.22
2022-08-03T03:34:18.485Z,18.20
2022-08-03T03:36:45.091Z,18.21
2022-08-03T03:39:15.483Z,18.20
2022-08-03T03:41:42.804Z,18.21
2022-08-03T03:44:09.564Z,18.23
2022-08-03T03:46:36.205Z,18.24
2022-08-03T03:49:02.857Z,18.27
2022-08-03T03:51:29.435Z,18.22
2022-08-03T03:53:57.539Z,18.26
2022-08-03T03:56:24.610Z,18.27
2022-08-03T03:58:51.449Z,18.26
2022-08-03T04:01:18.163Z,18.21
2022-08-03T04:03:44.696Z,18.22
2022-08-03T04:06:29.856Z,18.26
2022-08-03T04:09:19.523Z,18.24
2022-08-03T04:11:50.780Z,18.22
2022-08-03T04:14:23.151Z,18.24
2022-08-03T04:17:01.740Z,18.20
2022-08-03T04:19:32.136Z,18.20
2022-08-03T04:22:01.389Z,18.20
2022-08-03T04:24:31.742Z,18.19
2022-08-03T04:26:59.517Z,18.22
2022-08-03T04:29:26.626Z,18.16
2022-08-03T04:31:54.798Z,18.21
2022-08-03T04:34:22.624Z,18.21
2022-08-03T04:36:50.414Z,18.19
2022-08-03T04:39:20.318Z,18.16
2022-08-03T04:42:04.762Z,18.16
2022-08-03T04:44:40.731Z,18.16
2022-08-03T04:47:07.940Z,18.12
2022-08-03T04:49:36.552Z,18.09
2022-08-03T04:52:04.249Z,18.08
2022-08-03T04:54:31.105Z,18.09
2022-08-03T04:56:57.648Z,18.13
2022-08-03T04:59:24.171Z,18.09
2022-08-03T05:01:50.823Z,18.12
2022-08-03T05:04:17.468Z,18.19
2022-08-03T05:06:48.259Z,18.20
2022-08-03T05:09:45.813Z,18.27
2022-08-03T05:12:08.528Z,18.35
2022-08-03T05:14:37.707Z,18.40
2022-08-03T05:17:08.236Z,18.50
2022-08-03T05:19:35.159Z,18.62
2022-08-03T05:22:01.896Z,18.65
2022-08-03T05:24:28.439Z,18.63
2022-08-03T05:26:54.936Z,18.65
2022-08-03T05:29:21.976Z,18.68
2022-08-03T05:31:48.569Z,18.66
2022-08-03T05:34:15.096Z,18.73
2022-08-03T05:36:41.607Z,18.69
2022-08-03T05:39:08.330Z,18.69
2022-08-03T05:41:37.243Z,18.74
2022-08-03T05:44:04.434Z,18.74
2022-08-03T05:46:31.008Z,18.83
2022-08-03T05:48:57.572Z,18.78
2022-08-03T05:51:24.233Z,18.89
2022-08-03T05:53:50.861Z,18.96
2022-08-03T05:56:17.432Z,19.06
2022-08-03T05:58:45.238Z,19.13
2022-08-03T06:01:12.032Z,19.16
2022-08-03T06:03:38.643Z,19.23
2022-08-03T06:06:05.239Z,19.18
2022-08-03T06:08:31.822Z,19.16
2022-08-03T06:10:58.487Z,18.99
2022-08-03T06:13:25.009Z,18.98
2022-08-03T06:15:51.512Z,19.08
2022-08-03T06:18:18.197Z,19.15
2022-08-03T06:20:44.749Z,19.20
2022-08-03T06:23:16.249Z,19.14
2022-08-03T06:25:44.899Z,19.31
2022-08-03T06:28:35.402Z,19.30
2022-08-03T06:31:01.008Z,19.30
2022-08-03T06:34:31.478Z,19.27
2022-08-03T06:36:14.388Z,19.45
2022-08-03T06:38:40.953Z,19.46
2022-08-03T06:41:07.545Z,19.57
2022-08-03T06:43:38.029Z,19.59
2022-08-03T06:46:24.411Z,19.79
2022-08-03T06:48:51.119Z,20.01
2022-08-03T06:51:17.656Z,19.86
2022-08-03T06:53:44.169Z,19.96
2022-08-03T06:56:11.121Z,20.11
2022-08-03T06:58:37.663Z,20.35
2022-08-03T07:01:04.433Z,20.41
2022-08-03T07:03:31.043Z,20.49
2022-08-03T07:05:57.517Z,20.33
2022-08-03T07:08:33.600Z,20.18
2022-08-03T07:11:00.972Z,20.22
2022-08-03T07:13:27.522Z,20.46
2022-08-03T07:15:56.840Z,20.39
2022-08-03T07:18:25.660Z,20.55
2022-08-03T07:20:56.865Z,20.63
2022-08-03T07:23:23.473Z,20.71
2022-08-03T07:25:50.970Z,20.71
2022-08-03T07:28:18.092Z,20.87
2022-08-03T07:30:44.621Z,21.06
2022-08-03T07:33:11.326Z,21.06
2022-08-03T07:35:38.082Z,21.04
2022-08-03T07:38:04.582Z,21.36
2022-08-03T07:40:32.074Z,21.08
2022-08-03T07:42:59.131Z,21.14
2022-08-03T07:45:26.773Z,21.25
2022-08-03T07:47:54.425Z,21.07
2022-08-03T07:50:21.723Z,21.36
2022-08-03T07:52:49.473Z,21.21
2022-08-03T07:55:17.954Z,21.24
2022-08-03T07:57:44.610Z,21.37
2022-08-03T08:00:17.211Z,21.46
2022-08-03T08:02:44.717Z,21.42
2022-08-03T08:05:11.651Z,21.54
2022-08-03T08:07:38.995Z,21.59
2022-08-03T08:10:07.898Z,21.77
2022-08-03T08:12:34.494Z,21.88
2022-08-03T08:15:01.309Z,22.04
2022-08-03T08:17:27.903Z,22.13
2022-08-03T08:19:54.482Z,21.98
2022-08-03T08:22:30.440Z,21.93
2022-08-03T08:24:58.477Z,22.12
2022-08-03T08:27:25.799Z,21.87
2022-08-03T08:29:53.096Z,21.94
2022-08-03T08:32:23.314Z,22.01
2022-08-03T08:34:50.074Z,21.97
2022-08-03T08:37:16.749Z,22.03
2022-08-03T08:39:43.315Z,22.03
2022-08-03T08:42:10.381Z,22.31
2022-08-03T08:44:36.987Z,22.23
2022-08-03T08:47:04.431Z,22.40
2022-08-03T08:49:33.118Z,23.00
2022-08-03T08:52:01.651Z,24.16
2022-08-03T08:54:29.917Z,23.82
2022-08-03T08:56:59.414Z,23.59
2022-08-03T08:59:26.400Z,23.65
2022-08-03T09:02:13.023Z,24.21
2022-08-03T09:04:39.891Z,24.05
2022-08-03T09:07:19.722Z,24.64
2022-08-03T09:10:10.519Z,25.54
2022-08-03T09:12:42.456Z,25.66
2022-08-03T09:15:32.656Z,25.17
2022-08-03T09:18:04.143Z,25.35
2022-08-03T09:20:33.251Z,25.38
2022-08-03T09:23:19.097Z,25.08
2022-08-03T09:25:58.066Z,25.24
2022-08-03T09:29:01.350Z,25.43
2022-08-03T09:31:20.792Z,25.16
2022-08-03T09:33:48.674Z,25.93
2022-08-03T09:36:37.400Z,25.96
2022-08-03T09:39:11.229Z,25.72
2022-08-03T09:41:39.351Z,26.06
2022-08-03T09:44:06.379Z,26.09
2022-08-03T09:46:39.439Z,26.05
2022-08-03T09:49:12.042Z,26.16
2022-08-03T09:52:32.075Z,26.57
2022-08-03T09:57:25.507Z,27.35
2022-08-03T10:00:04.546Z,27.14
2022-08-03T10:02:31.702Z,27.52
2022-08-03T10:04:58.272Z,26.77
2022-08-03T10:07:25.051Z,27.24
2022-08-03T10:10:30.054Z,27.30
2022-08-03T10:12:48.796Z,27.71
2022-08-03T10:16:23.841Z,27.93
2022-08-03T10:18:02.462Z,28.30
2022-08-03T10:20:29.057Z,27.88
2022-08-03T10:25:22.091Z,28.64
2022-08-03T10:28:04.303Z,28.46
2022-08-03T10:30:32.655Z,28.41
2022-08-03T10:33:50.354Z,28.60
2022-08-03T10:35:58.090Z,29.35
2022-08-03T10:38:32.988Z,29.82
2022-08-03T10:40:59.753Z,29.97
2022-08-03T10:43:32.134Z,29.76
2022-08-03T10:45:59.236Z,29.50
2022-08-03T10:48:26.274Z,28.94
2022-08-03T10:50:53.091Z,29.64
2022-08-03T10:53:37.834Z,29.98
2022-08-03T10:56:26.615Z,29.87
2022-08-03T10:59:10.662Z,29.73
2022-08-03T11:01:59.168Z,29.63
2022-08-03T11:09:49.034Z,30.14
2022-08-03T11:12:21.294Z,30.31
2022-08-03T11:17:23.716Z,30.29
2022-08-03T11:19:57.845Z,30.47
2022-08-03T11:22:25.246Z,30.55
2022-08-03T11:24:54.019Z,31.01
2022-08-03T11:27:20.739Z,30.60
2022-08-03T11:32:48.518Z,30.38
2022-08-03T11:35:33.737Z,30.13
2022-08-03T11:38:04.313Z,30.65
2022-08-03T11:40:46.752Z,30.52
2022-08-03T11:43:22.567Z,30.85
2022-08-03T11:46:05.541Z,31.42
2022-08-03T11:48:37.962Z,30.74
2022-08-03T11:51:06.798Z,31.33
2022-08-03T11:53:33.847Z,30.90
2022-08-03T11:56:12.911Z,31.38
2022-08-03T11:59:17.702Z,31.89
2022-08-03T12:04:04.746Z,31.63
2022-08-03T12:06:31.268Z,31.27
2022-08-03T12:08:57.785Z,31.64
2022-08-03T12:11:24.630Z,31.94
2022-08-03T12:16:21.771Z,32.07
2022-08-03T12:18:59.344Z,32.09
2022-08-03T12:21:26.130Z,31.54
2022-08-03T12:24:00.780Z,32.22
2022-08-03T12:26:28.990Z,32.58
2022-08-03T12:28:55.763Z,32.50
2022-08-03T12:31:22.456Z,32.11
2022-08-03T12:34:06.446Z,31.92
2022-08-03T12:36:34.821Z,32.74
2022-08-03T12:39:06.343Z,32.44
2022-08-03T12:41:35.101Z,31.52
2022-08-03T12:44:03.618Z,31.49
2022-08-03T12:46:32.470Z,31.25
2022-08-03T12:49:00.481Z,31.77
2022-08-03T12:51:32.262Z,31.44
2022-08-03T12:53:59.578Z,31.87
2022-08-03T12:56:26.700Z,32.02
2022-08-03T12:58:53.562Z,32.19
2022-08-03T13:01:22.586Z,32.76
2022-08-03T13:03:52.926Z,32.83
2022-08-03T13:06:32.760Z,32.37
2022-08-03T13:09:07.151Z,32.40
2022-08-03T13:11:55.442Z,32.78
2022-08-03T13:14:20.779Z,33.26
2022-08-03T13:16:48.872Z,34.30
2022-08-03T13:19:16.141Z,34.17
2022-08-03T13:21:53.406Z,35.05
2022-08-03T13:24:30.629Z,33.61
2022-08-03T13:26:58.892Z,33.45
2022-08-03T13:29:25.420Z,34.29
2022-08-03T13:31:51.966Z,35.02
2022-08-03T13:34:23.003Z,34.60
2022-08-03T13:37:09.233Z,34.18
2022-08-03T13:39:57.520Z,33.84
2022-08-03T13:42:24.371Z,33.69
2022-08-03T13:44:50.916Z,33.19
2022-08-03T13:47:17.691Z,33.51
2022-08-03T13:49:54.873Z,33.65
2022-08-03T13:52:34.647Z,33.49
2022-08-03T13:55:02.311Z,33.80
2022-08-03T13:58:03.561Z,33.12
2022-08-03T14:00:26.560Z,33.25
2022-08-03T14:03:16.392Z,33.42
2022-08-03T14:05:43.663Z,33.81
2022-08-03T14:08:10.973Z,33.35
2022-08-03T14:10:39.565Z,32.97
2022-08-03T14:13:06.681Z,33.19
2022-08-03T14:15:37.462Z,33.32
2022-08-03T14:20:48.998Z,33.37
2022-08-03T14:23:17.462Z,33.64
2022-08-03T14:25:51.722Z,33.85
2022-08-03T14:28:21.036Z,34.22
2022-08-03T14:30:52.346Z,34.06
2022-08-03T14:33:19.243Z,34.17
2022-08-03T14:35:46.092Z,34.22
2022-08-03T14:38:12.698Z,34.69
2022-08-03T14:40:39.458Z,34.84
2022-08-03T14:43:06.102Z,35.09
2022-08-03T14:45:32.682Z,34.83
2022-08-03T14:50:32.072Z,35.33
2022-08-03T14:50:51.665Z,35.50
2022-08-03T14:53:19.267Z,35.54
2022-08-03T14:55:50.713Z,35.48
2022-08-03T14:58:22.423Z,35.21
2022-08-03T15:00:50.522Z,35.49
2022-08-03T15:03:20.358Z,34.72
2022-08-03T15:05:47.188Z,35.73
2022-08-03T15:08:13.836Z,36.16
2022-08-03T15:10:45.235Z,36.76
2022-08-03T15:13:15.603Z,36.07
2022-08-03T15:15:42.337Z,35.82
2022-08-03T15:18:09.458Z,35.89
2022-08-03T15:23:01.900Z,35.98
2022-08-03T15:26:29.611Z,36.07
2022-08-03T15:28:15.269Z,35.83
2022-08-03T15:33:07.615Z,37.56
2022-08-03T15:38:00.079Z,37.01
2022-08-03T15:40:26.897Z,37.44
2022-08-03T15:42:53.575Z,38.13
2022-08-03T15:45:20.356Z,38.37
2022-08-03T15:47:47.227Z,37.92
2022-08-03T15:50:13.889Z,37.73
2022-08-03T15:52:40.570Z,37.90
2022-08-03T15:55:07.905Z,37.72
2022-08-03T15:57:34.654Z,36.13
2022-08-03T16:00:21.319Z,37.64
2022-08-03T16:03:00.872Z,37.78
2022-08-03T16:05:27.658Z,37.52
2022-08-03T16:07:58.561Z,38.39
2022-08-03T16:10:31.348Z,37.64
2022-08-03T16:13:00.948Z,37.42
2022-08-03T16:17:53.160Z,37.08
2022-08-03T16:20:31.437Z,37.89
2022-08-03T16:23:10.779Z,37.53
2022-08-03T16:25:39.824Z,37.54
2022-08-03T16:28:13.460Z,37.69
2022-08-03T16:33:19.322Z,38.30
2022-08-03T16:35:46.800Z,37.57
2022-08-03T16:40:53.929Z,37.74
2022-08-03T16:43:22.393Z,36.62
2022-08-03T16:45:49.383Z,36.48
2022-08-03T16:48:17.016Z,36.32
2022-08-03T16:50:44.582Z,35.80
2022-08-03T16:55:54.340Z,35.70
2022-08-03T17:01:01.513Z,35.55
2022-08-03T17:08:44.305Z,36.99
2022-08-03T17:11:22.064Z,37.39
2022-08-03T17:13:52.375Z,36.56
2022-08-03T17:19:01.978Z,36.33
2022-08-03T17:24:19.893Z,36.57
2022-08-03T17:29:17.896Z,36.69
2022-08-03T17:31:49.397Z,36.44
2022-08-03T17:42:29.006Z,35.12
2022-08-03T17:47:42.370Z,35.08
2022-08-03T17:50:24.806Z,34.31
2022-08-03T17:53:07.305Z,34.15
2022-08-03T17:55:57.714Z,33.86
2022-08-03T17:58:36.068Z,33.26
2022-08-03T18:02:00.777Z,32.65
2022-08-03T18:04:11.866Z,31.44
2022-08-03T18:06:56.547Z,30.52
2022-08-03T18:10:04.142Z,30.08
2022-08-03T18:12:19.068Z,29.55
2022-08-03T18:14:57.935Z,29.42
2022-08-03T18:17:55.766Z,29.29
2022-08-03T18:20:34.031Z,28.88
2022-08-03T18:23:06.192Z,28.63
2022-08-03T18:25:43.001Z,28.66
2022-08-03T18:28:18.648Z,28.52
2022-08-03T18:30:53.894Z,28.59
2022-08-03T18:34:18.572Z,28.54
2022-08-03T18:36:18.095Z,28.43
2022-08-03T18:38:51.150Z,28.24
2022-08-03T18:41:31.807Z,27.99
2022-08-03T18:44:08.886Z,27.84
2022-08-03T18:46:50.831Z,27.77
2022-08-03T18:49:53.891Z,27.73
2022-08-03T18:52:33.793Z,27.76
2022-08-03T18:55:20.502Z,27.74
2022-08-03T18:57:56.146Z,27.63
2022-08-03T19:00:42.665Z,27.50
2022-08-03T19:03:20.331Z,27.50
2022-08-03T19:06:02.434Z,27.36
2022-08-03T19:08:49.713Z,27.16
2022-08-03T19:11:29.517Z,26.99
2022-08-03T19:14:20.496Z,26.90
2022-08-03T19:16:57.849Z,26.88
2022-08-03T19:19:25.465Z,26.80
2022-08-03T19:22:11.068Z,26.56
2022-08-03T19:24:39.829Z,26.51
2022-08-03T19:27:10.701Z,26.44
2022-08-03T19:29:59.881Z,26.48
2022-08-03T19:32:28.853Z,26.37
2022-08-03T19:34:56.988Z,26.23
2022-08-03T19:37:27.488Z,26.16
2022-08-03T19:40:05.936Z,26.17
2022-08-03T19:42:40.518Z,26.15
2022-08-03T19:45:11.284Z,26.17
2022-08-03T19:47:46.735Z,26.16
2022-08-03T19:50:14.045Z,26.15
2022-08-03T19:52:43.779Z,26.11
2022-08-03T19:55:12.346Z,26.02
2022-08-03T19:57:41.165Z,25.97
2022-08-03T20:00:11.817Z,25.91
2022-08-03T20:02:39.782Z,25.82
2022-08-03T20:07:55.374Z,25.70
2022-08-03T20:10:22.940Z,25.67
2022-08-03T20:12:49.803Z,25.67
2022-08-03T20:15:22.227Z,25.67
2022-08-03T20:17:55.299Z,25.61
2022-08-03T20:20:29.684Z,25.61
2022-08-03T20:22:58.057Z,25.62
2022-08-03T20:25:38.483Z,25.59
2022-08-03T20:28:14.487Z,25.62
2022-08-03T20:30:43.745Z,25.61
2022-08-03T20:33:10.601Z,25.55
2022-08-03T20:35:37.514Z,25.46
2022-08-03T20:38:04.151Z,25.43
2022-08-03T20:40:31.428Z,25.39
2022-08-03T20:42:59.733Z,25.30
2022-08-03T20:45:58.440Z,25.28
2022-08-03T20:48:16.004Z,25.21
2022-08-03T20:50:43.508Z,25.17
2022-08-03T20:53:10.495Z,25.10
2022-08-03T20:55:47.483Z,25.15
2022-08-03T20:58:25.712Z,25.19
2022-08-03T21:00:53.397Z,25.08
2022-08-03T21:03:20.083Z,25.00
2022-08-03T21:05:51.748Z,25.00
2022-08-03T21:08:22.455Z,24.98
2022-08-03T21:10:50.241Z,24.96
2022-08-03T21:13:09.932Z,25.75
2022-08-03T21:13:23.460Z,24.95
2022-08-03T21:16:11.247Z,24.92
2022-08-03T21:18:45.668Z,24.96
2022-08-03T21:21:14.985Z,24.96
2022-08-03T21:23:48.816Z,24.90
2022-08-03T21:26:17.252Z,24.74
2022-08-03T21:28:45.969Z,24.65
2022-08-03T21:31:13.670Z,24.57
2022-08-03T21:33:40.915Z,24.49
2022-08-03T21:36:11.072Z,24.44
2022-08-03T21:38:37.728Z,24.45
2022-08-03T21:41:04.262Z,24.42
2022-08-03T21:43:30.871Z,24.39
2022-08-03T21:48:44.825Z,24.25
2022-08-03T21:51:12.696Z,24.17
2022-08-03T21:54:02.593Z,24.08
2022-08-03T21:56:28.247Z,24.03
2022-08-03T21:58:58.248Z,23.97
2022-08-03T22:01:27.379Z,23.90
2022-08-03T22:04:04.084Z,23.80
2022-08-03T22:06:33.686Z,23.66
2022-08-03T22:09:00.486Z,23.60
2022-08-03T22:11:27.373Z,23.56
2022-08-03T22:13:53.901Z,23.53
2022-08-03T22:16:20.606Z,23.50
2022-08-03T22:18:47.170Z,23.47
2022-08-03T22:21:16.171Z,23.46
2022-08-03T22:23:55.181Z,23.45
2022-08-03T22:26:32.431Z,23.45
2022-08-03T22:29:01.712Z,23.46
2022-08-03T22:31:57.533Z,23.49
2022-08-03T22:34:14.897Z,23.46
2022-08-03T22:36:41.729Z,23.47
2022-08-03T22:39:08.446Z,23.51
2022-08-03T22:41:35.099Z,23.53
2022-08-03T22:44:04.575Z,23.54
2022-08-03T22:46:32.926Z,23.44
2022-08-03T22:49:00.407Z,23.42
2022-08-03T22:51:27.197Z,23.41
2022-08-03T22:53:53.841Z,23.38
2022-08-03T22:56:20.507Z,23.31
2022-08-03T22:58:46.999Z,23.26
2022-08-03T23:01:17.287Z,23.21
2022-08-03T23:03:59.631Z,23.18
2022-08-03T23:06:33.613Z,23.16
2022-08-03T23:09:02.901Z,23.10
2022-08-03T23:11:29.518Z,23.02
2022-08-03T23:13:56.767Z,22.91
2022-08-03T23:16:28.716Z,22.86
2022-08-03T23:18:59.083Z,22.76
2022-08-03T23:21:53.835Z,22.69
2022-08-03T23:24:24.580Z,22.67
2022-08-03T23:26:57.067Z,22.65
2022-08-03T23:29:23.815Z,22.72
2022-08-03T23:31:50.702Z,22.73
2022-08-03T23:34:36.397Z,22.71
2022-08-03T23:37:05.725Z,22.70
2022-08-03T23:39:35.269Z,22.68
2022-08-03T23:42:02.943Z,22.66
2022-08-03T23:44:34.095Z,22.58
2022-08-03T23:47:00.775Z,22.44
2022-08-03T23:49:27.289Z,22.36
2022-08-03T23:52:10.843Z,22.33
2022-08-03T23:54:57.256Z,22.28
2022-08-03T23:57:38.773Z,22.25
